Terminal Aerodrome Forecast
Issued by NWS

Home | Current Version | Previous Version | Text Only | Print | Product List | Glossary On
Versions: 1 2 3 4 5 6 7 8 9 10 11 12 13 14 15 16 17 18 19 20 21 22 23 24 25 26 27 28 29 30 31 32 33 34 35 36 37 38 39 40 41 42
000
FTAK31 PAFA 142338
TAFAOT
TAF
PAOT 142338Z 1500/1524 VRB05KT P6SM BKN140
     FM150500 04005KT P6SM BKN120
     FM151500 06008KT P6SM VCSH SCT025 BKN050 OVC120=

USA.gov is the U.S. government's official web portal to all federal, state and local government web resources and services.